sensor_id;sensor_type;location;lat;lon;timestamp;pressure;altitude;pressure_sealevel;temperature;humidity
64632;BME280;58358;50.936;0.246;2022-12-07T00:01:22;101696.61;;;1.24;74.55
64632;BME280;58358;50.936;0.246;2022-12-07T00:03:47;101695.91;;;1.97;70.85
64632;BME280;58358;50.936;0.246;2022-12-07T00:06:12;101690.34;;;1.30;69.79
64632;BME280;58358;50.936;0.246;2022-12-07T00:08:37;101690.26;;;1.94;69.60
64632;BME280;58358;50.936;0.246;2022-12-07T00:11:04;101687.57;;;2.57;67.11
64632;BME280;58358;50.936;0.246;2022-12-07T00:13:27;101684.77;;;2.90;64.19
64632;BME280;58358;50.936;0.246;2022-12-07T00:15:52;101682.01;;;1.42;68.62
64632;BME280;58358;50.936;0.246;2022-12-07T00:18:19;101683.77;;;1.51;68.78
64632;BME280;58358;50.936;0.246;2022-12-07T00:20:43;101688.51;;;-0.63;73.99
64632;BME280;58358;50.936;0.246;2022-12-07T00:27:59;101688.83;;;0.50;73.18
64632;BME280;58358;50.936;0.246;2022-12-07T00:30:27;101693.49;;;0.40;74.64
64632;BME280;58358;50.936;0.246;2022-12-07T00:32:50;101695.60;;;-0.42;78.74
64632;BME280;58358;50.936;0.246;2022-12-07T00:35:16;101687.61;;;1.04;74.73
64632;BME280;58358;50.936;0.246;2022-12-07T00:37:41;101685.94;;;1.06;74.98
64632;BME280;58358;50.936;0.246;2022-12-07T00:40:07;101685.14;;;1.16;74.81
64632;BME280;58358;50.936;0.246;2022-12-07T00:42:32;101684.20;;;1.62;72.09
64632;BME280;58358;50.936;0.246;2022-12-07T00:44:57;101681.39;;;0.75;74.71
64632;BME280;58358;50.936;0.246;2022-12-07T00:47:23;101675.13;;;0.62;77.13
64632;BME280;58358;50.936;0.246;2022-12-07T00:49:48;101680.89;;;-0.26;78.52
64632;BME280;58358;50.936;0.246;2022-12-07T00:52:13;101678.84;;;1.59;72.58
64632;BME280;58358;50.936;0.246;2022-12-07T00:54:39;101676.04;;;1.91;71.70
64632;BME280;58358;50.936;0.246;2022-12-07T00:57:04;101676.19;;;1.40;73.01
64632;BME280;58358;50.936;0.246;2022-12-07T00:59:29;101677.86;;;1.33;71.09
64632;BME280;58358;50.936;0.246;2022-12-07T01:01:56;101675.38;;;2.23;68.58
64632;BME280;58358;50.936;0.246;2022-12-07T01:04:20;101673.17;;;2.25;67.23
64632;BME280;58358;50.936;0.246;2022-12-07T01:06:46;101669.25;;;1.88;70.70
64632;BME280;58358;50.936;0.246;2022-12-07T01:09:11;101667.77;;;0.64;75.49
64632;BME280;58358;50.936;0.246;2022-12-07T01:11:36;101666.05;;;1.48;71.71
64632;BME280;58358;50.936;0.246;2022-12-07T01:14:03;101666.05;;;1.74;71.78
64632;BME280;58358;50.936;0.246;2022-12-07T01:16:30;101666.72;;;1.05;74.09
64632;BME280;58358;50.936;0.246;2022-12-07T01:18:54;101664.18;;;0.77;74.79
64632;BME280;58358;50.936;0.246;2022-12-07T01:21:20;101665.25;;;1.38;71.60
64632;BME280;58358;50.936;0.246;2022-12-07T01:23:44;101666.82;;;1.32;71.01
64632;BME280;58358;50.936;0.246;2022-12-07T01:26:15;101668.14;;;0.18;76.04
64632;BME280;58358;50.936;0.246;2022-12-07T01:28:35;101664.52;;;-0.01;77.54
64632;BME280;58358;50.936;0.246;2022-12-07T01:31:03;101658.41;;;0.75;77.93
64632;BME280;58358;50.936;0.246;2022-12-07T01:33:27;101655.88;;;0.37;78.64
64632;BME280;58358;50.936;0.246;2022-12-07T01:35:52;101662.07;;;-0.04;81.33
64632;BME280;58358;50.936;0.246;2022-12-07T01:38:16;101658.96;;;1.29;77.99
64632;BME280;58358;50.936;0.246;2022-12-07T01:40:42;101661.65;;;-0.21;84.06
64632;BME280;58358;50.936;0.246;2022-12-07T01:43:14;101658.20;;;0.10;80.89
64632;BME280;58358;50.936;0.246;2022-12-07T01:45:38;101651.70;;;0.61;80.03
64632;BME280;58358;50.936;0.246;2022-12-07T01:47:59;101654.22;;;1.15;77.08
64632;BME280;58358;50.936;0.246;2022-12-07T01:50:27;101655.25;;;1.04;76.84
64632;BME280;58358;50.936;0.246;2022-12-07T01:52:51;101655.57;;;2.06;74.73
64632;BME280;58358;50.936;0.246;2022-12-07T01:55:16;101652.21;;;2.80;72.25
64632;BME280;58358;50.936;0.246;2022-12-07T01:57:45;101650.45;;;2.15;71.32
64632;BME280;58358;50.936;0.246;2022-12-07T02:00:08;101648.21;;;1.56;74.87
64632;BME280;58358;50.936;0.246;2022-12-07T02:02:33;101649.22;;;1.04;77.14
64632;BME280;58358;50.936;0.246;2022-12-07T02:04:57;101648.69;;;2.30;72.40
64632;BME280;58358;50.936;0.246;2022-12-07T02:07:23;101650.47;;;2.33;71.46
64632;BME280;58358;50.936;0.246;2022-12-07T02:09:48;101653.08;;;1.72;71.90
64632;BME280;58358;50.936;0.246;2022-12-07T02:12:13;101655.51;;;2.30;70.61
64632;BME280;58358;50.936;0.246;2022-12-07T02:14:39;101659.70;;;2.11;69.94
64632;BME280;58358;50.936;0.246;2022-12-07T02:17:12;101663.37;;;1.28;73.11
64632;BME280;58358;50.936;0.246;2022-12-07T02:22:01;101670.15;;;1.08;75.51
64632;BME280;58358;50.936;0.246;2022-12-07T02:29:20;101666.54;;;0.96;79.17
64632;BME280;58358;50.936;0.246;2022-12-07T02:31:43;101664.98;;;1.39;79.24
64632;BME280;58358;50.936;0.246;2022-12-07T02:34:07;101664.59;;;0.59;81.99
64632;BME280;58358;50.936;0.246;2022-12-07T02:36:32;101667.56;;;-0.53;84.37
64632;BME280;58358;50.936;0.246;2022-12-07T02:38:59;101660.88;;;0.78;81.43
64632;BME280;58358;50.936;0.246;2022-12-07T02:41:24;101662.62;;;0.90;80.26
64632;BME280;58358;50.936;0.246;2022-12-07T02:43:49;101656.50;;;0.42;80.48
64632;BME280;58358;50.936;0.246;2022-12-07T02:46:12;101657.87;;;1.44;78.59
64632;BME280;58358;50.936;0.246;2022-12-07T02:48:38;101653.87;;;0.87;80.53
64632;BME280;58358;50.936;0.246;2022-12-07T02:51:02;101654.95;;;1.15;78.42
64632;BME280;58358;50.936;0.246;2022-12-07T02:53:29;101654.96;;;0.20;82.63
64632;BME280;58358;50.936;0.246;2022-12-07T02:55:53;101654.47;;;0.07;82.90
64632;BME280;58358;50.936;0.246;2022-12-07T02:58:30;101650.79;;;2.13;75.79
64632;BME280;58358;50.936;0.246;2022-12-07T03:00:52;101649.95;;;2.31;73.26
64632;BME280;58358;50.936;0.246;2022-12-07T03:03:11;101644.15;;;1.83;76.26
64632;BME280;58358;50.936;0.246;2022-12-07T03:05:50;101642.59;;;0.99;77.88
64632;BME280;58358;50.936;0.246;2022-12-07T03:08:07;101643.17;;;1.65;74.37
64632;BME280;58358;50.936;0.246;2022-12-07T03:10:34;101639.95;;;0.86;77.21
64632;BME280;58358;50.936;0.246;2022-12-07T03:12:59;101641.55;;;1.84;73.46
64632;BME280;58358;50.936;0.246;2022-12-07T03:15:22;101638.85;;;1.81;74.17
64632;BME280;58358;50.936;0.246;2022-12-07T03:17:45;101636.87;;;1.62;74.80
64632;BME280;58358;50.936;0.246;2022-12-07T03:20:10;101633.95;;;-0.10;80.84
64632;BME280;58358;50.936;0.246;2022-12-07T03:22:35;101628.18;;;1.43;76.32
64632;BME280;58358;50.936;0.246;2022-12-07T03:25:03;101629.71;;;1.38;76.61
64632;BME280;58358;50.936;0.246;2022-12-07T03:27:26;101628.29;;;0.87;76.57
64632;BME280;58358;50.936;0.246;2022-12-07T03:29:51;101631.78;;;1.44;74.49
64632;BME280;58358;50.936;0.246;2022-12-07T03:32:16;101632.79;;;1.46;75.11
64632;BME280;58358;50.936;0.246;2022-12-07T03:34:44;101631.82;;;0.51;76.89
64632;BME280;58358;50.936;0.246;2022-12-07T03:37:08;101625.64;;;1.77;73.27
64632;BME280;58358;50.936;0.246;2022-12-07T03:39:36;101623.00;;;2.70;70.74
64632;BME280;58358;50.936;0.246;2022-12-07T03:41:56;101623.84;;;2.16;71.47
64632;BME280;58358;50.936;0.246;2022-12-07T03:44:21;101623.84;;;1.41;73.52
64632;BME280;58358;50.936;0.246;2022-12-07T03:46:57;101627.58;;;-0.63;81.80
64632;BME280;58358;50.936;0.246;2022-12-07T03:49:18;101623.87;;;-1.40;85.62
64632;BME280;58358;50.936;0.246;2022-12-07T03:51:42;101622.38;;;0.05;83.02
64632;BME280;58358;50.936;0.246;2022-12-07T03:54:08;101622.70;;;-0.87;83.59
64632;BME280;58358;50.936;0.246;2022-12-07T03:56:29;101616.69;;;0.57;79.43
64632;BME280;58358;50.936;0.246;2022-12-07T03:58:53;101623.80;;;-0.42;83.35
64632;BME280;58358;50.936;0.246;2022-12-07T04:01:18;101620.25;;;-0.28;83.63
64632;BME280;58358;50.936;0.246;2022-12-07T04:03:43;101621.96;;;-0.52;83.50
64632;BME280;58358;50.936;0.246;2022-12-07T04:06:11;101620.08;;;-0.33;83.28
64632;BME280;58358;50.936;0.246;2022-12-07T04:08:34;101622.82;;;-0.48;83.63
64632;BME280;58358;50.936;0.246;2022-12-07T04:11:01;101616.40;;;-0.20;81.61
64632;BME280;58358;50.936;0.246;2022-12-07T04:13:26;101623.99;;;-0.42;84.57
64632;BME280;58358;50.936;0.246;2022-12-07T04:15:51;101621.81;;;-0.86;87.20
64632;BME280;58358;50.936;0.246;2022-12-07T04:18:17;101622.96;;;-1.19;89.71
64632;BME280;58358;50.936;0.246;2022-12-07T04:20:42;101618.59;;;-1.22;88.95
64632;BME280;58358;50.936;0.246;2022-12-07T04:23:08;101620.84;;;-0.48;86.60
64632;BME280;58358;50.936;0.246;2022-12-07T04:25:33;101619.36;;;-0.86;84.84
64632;BME280;58358;50.936;0.246;2022-12-07T04:27:59;101614.76;;;0.18;81.70
64632;BME280;58358;50.936;0.246;2022-12-07T04:30:23;101613.88;;;0.27;83.11
64632;BME280;58358;50.936;0.246;2022-12-07T04:32:49;101618.13;;;-0.33;83.25
64632;BME280;58358;50.936;0.246;2022-12-07T04:35:14;101612.34;;;1.02;81.26
64632;BME280;58358;50.936;0.246;2022-12-07T04:37:39;101608.71;;;1.13;79.78
64632;BME280;58358;50.936;0.246;2022-12-07T04:40:07;101611.16;;;-0.12;83.52
64632;BME280;58358;50.936;0.246;2022-12-07T04:42:30;101614.22;;;0.03;84.19
64632;BME280;58358;50.936;0.246;2022-12-07T04:44:55;101609.98;;;0.35;82.93
64632;BME280;58358;50.936;0.246;2022-12-07T04:47:21;101616.92;;;-0.17;83.81
64632;BME280;58358;50.936;0.246;2022-12-07T04:49:46;101613.66;;;1.37;79.21
64632;BME280;58358;50.936;0.246;2022-12-07T04:52:13;101612.38;;;0.46;81.41
64632;BME280;58358;50.936;0.246;2022-12-07T04:54:37;101619.51;;;-0.41;85.82
64632;BME280;58358;50.936;0.246;2022-12-07T04:57:03;101613.86;;;-1.46;87.71
64632;BME280;58358;50.936;0.246;2022-12-07T04:59:28;101613.53;;;-1.26;89.98
64632;BME280;58358;50.936;0.246;2022-12-07T05:01:53;101614.36;;;-0.60;86.41
64632;BME280;58358;50.936;0.246;2022-12-07T05:04:19;101609.69;;;-0.20;85.20
64632;BME280;58358;50.936;0.246;2022-12-07T05:06:44;101608.12;;;-0.84;85.90
64632;BME280;58358;50.936;0.246;2022-12-07T05:09:11;101606.37;;;-0.81;86.18
64632;BME280;58358;50.936;0.246;2022-12-07T05:11:35;101603.86;;;-1.21;86.67
64632;BME280;58358;50.936;0.246;2022-12-07T05:14:01;101600.57;;;-1.79;89.60
64632;BME280;58358;50.936;0.246;2022-12-07T05:16:27;101601.50;;;-0.75;87.51
64632;BME280;58358;50.936;0.246;2022-12-07T05:18:52;101598.86;;;0.53;83.48
64632;BME280;58358;50.936;0.246;2022-12-07T05:21:17;101598.67;;;0.99;79.85
64632;BME280;58358;50.936;0.246;2022-12-07T05:23:43;101597.92;;;0.92;79.29
64632;BME280;58358;50.936;0.246;2022-12-07T05:26:08;101602.77;;;-0.78;84.08
64632;BME280;58358;50.936;0.246;2022-12-07T05:28:34;101602.36;;;-0.78;88.90
64632;BME280;58358;50.936;0.246;2022-12-07T05:31:00;101602.44;;;-0.09;85.56
64632;BME280;58358;50.936;0.246;2022-12-07T05:33:24;101596.24;;;-1.03;87.25
64632;BME280;58358;50.936;0.246;2022-12-07T05:35:50;101595.76;;;-0.47;85.11
64632;BME280;58358;50.936;0.246;2022-12-07T05:38:14;101595.18;;;0.24;83.28
64632;BME280;58358;50.936;0.246;2022-12-07T05:40:39;101597.54;;;0.21;83.13
64632;BME280;58358;50.936;0.246;2022-12-07T05:43:05;101596.36;;;-0.97;85.32
64632;BME280;58358;50.936;0.246;2022-12-07T05:45:30;101587.83;;;0.29;82.76
64632;BME280;58358;50.936;0.246;2022-12-07T05:47:55;101591.72;;;-0.23;82.79
64632;BME280;58358;50.936;0.246;2022-12-07T05:50:21;101583.44;;;0.35;82.39
64632;BME280;58358;50.936;0.246;2022-12-07T05:52:45;101586.89;;;-0.03;84.20
64632;BME280;58358;50.936;0.246;2022-12-07T05:55:13;101584.91;;;-1.44;88.55
64632;BME280;58358;50.936;0.246;2022-12-07T05:57:36;101587.55;;;-0.26;86.37
64632;BME280;58358;50.936;0.246;2022-12-07T06:00:05;101590.28;;;-0.60;88.21
64632;BME280;58358;50.936;0.246;2022-12-07T06:02:27;101588.67;;;-1.19;88.80
64632;BME280;58358;50.936;0.246;2022-12-07T06:04:53;101588.17;;;-1.58;88.31
64632;BME280;58358;50.936;0.246;2022-12-07T06:07:20;101594.93;;;0.10;84.59
64632;BME280;58358;50.936;0.246;2022-12-07T06:09:46;101587.53;;;0.38;83.40
64632;BME280;58358;50.936;0.246;2022-12-07T06:12:11;101587.09;;;0.69;82.20
64632;BME280;58358;50.936;0.246;2022-12-07T06:14:36;101586.78;;;0.27;82.57
64632;BME280;58358;50.936;0.246;2022-12-07T06:17:01;101589.93;;;-0.78;87.19
64632;BME280;58358;50.936;0.246;2022-12-07T06:19:27;101590.35;;;-1.79;91.45
64632;BME280;58358;50.936;0.246;2022-12-07T06:21:52;101588.18;;;-1.05;87.58
64632;BME280;58358;50.936;0.246;2022-12-07T06:24:17;101593.18;;;-0.32;86.48
64632;BME280;58358;50.936;0.246;2022-12-07T06:26:43;101590.87;;;-0.29;87.19
64632;BME280;58358;50.936;0.246;2022-12-07T06:29:09;101583.91;;;-0.04;85.65
64632;BME280;58358;50.936;0.246;2022-12-07T06:31:33;101587.41;;;0.98;81.01
64632;BME280;58358;50.936;0.246;2022-12-07T06:33:59;101588.99;;;1.08;78.57
64632;BME280;58358;50.936;0.246;2022-12-07T06:36:24;101589.27;;;0.35;79.14
64632;BME280;58358;50.936;0.246;2022-12-07T06:38:50;101593.61;;;1.53;78.59
64632;BME280;58358;50.936;0.246;2022-12-07T06:41:16;101593.92;;;0.68;80.43
64632;BME280;58358;50.936;0.246;2022-12-07T06:43:41;101595.54;;;0.78;80.75
64632;BME280;58358;50.936;0.246;2022-12-07T06:46:06;101596.89;;;0.59;80.71
64632;BME280;58358;50.936;0.246;2022-12-07T06:48:32;101601.51;;;0.79;80.64
64632;BME280;58358;50.936;0.246;2022-12-07T06:50:57;101609.29;;;-0.08;82.00
64632;BME280;58358;50.936;0.246;2022-12-07T06:53:22;101607.21;;;1.07;80.67
64632;BME280;58358;50.936;0.246;2022-12-07T06:55:48;101605.72;;;0.79;80.18
64632;BME280;58358;50.936;0.246;2022-12-07T06:58:13;101604.89;;;1.85;77.29
64632;BME280;58358;50.936;0.246;2022-12-07T07:00:40;101607.15;;;2.20;76.27
64632;BME280;58358;50.936;0.246;2022-12-07T07:03:04;101607.64;;;1.85;77.15
64632;BME280;58358;50.936;0.246;2022-12-07T07:05:29;101612.38;;;1.65;78.40
64632;BME280;58358;50.936;0.246;2022-12-07T07:07:55;101616.27;;;-0.29;82.49
64632;BME280;58358;50.936;0.246;2022-12-07T07:10:20;101613.78;;;0.94;80.75
64632;BME280;58358;50.936;0.246;2022-12-07T07:12:45;101614.96;;;-0.06;85.77
64632;BME280;58358;50.936;0.246;2022-12-07T07:15:11;101617.29;;;-0.12;85.70
64632;BME280;58358;50.936;0.246;2022-12-07T07:17:36;101611.87;;;0.28;85.47
64632;BME280;58358;50.936;0.246;2022-12-07T07:20:01;101617.46;;;-0.43;85.73
64632;BME280;58358;50.936;0.246;2022-12-07T07:22:27;101614.65;;;-0.70;87.49
64632;BME280;58358;50.936;0.246;2022-12-07T07:24:53;101619.88;;;-0.52;86.95
64632;BME280;58358;50.936;0.246;2022-12-07T07:27:18;101610.65;;;0.31;83.19
64632;BME280;58358;50.936;0.246;2022-12-07T07:29:44;101616.76;;;-0.90;87.68
64632;BME280;58358;50.936;0.246;2022-12-07T07:32:09;101621.49;;;-0.12;87.48
64632;BME280;58358;50.936;0.246;2022-12-07T07:34:36;101609.42;;;-1.35;90.66
64632;BME280;58358;50.936;0.246;2022-12-07T07:37:03;101610.54;;;-0.78;88.34
64632;BME280;58358;50.936;0.246;2022-12-07T07:39:27;101610.63;;;-0.90;88.42
64632;BME280;58358;50.936;0.246;2022-12-07T07:41:52;101608.71;;;-0.50;87.07
64632;BME280;58358;50.936;0.246;2022-12-07T07:44:18;101610.31;;;-0.31;87.49
64632;BME280;58358;50.936;0.246;2022-12-07T07:46:43;101609.39;;;-0.50;88.70
64632;BME280;58358;50.936;0.246;2022-12-07T07:49:09;101612.57;;;-0.72;88.90
64632;BME280;58358;50.936;0.246;2022-12-07T07:51:34;101610.96;;;-0.60;88.03
64632;BME280;58358;50.936;0.246;2022-12-07T07:54:00;101615.86;;;-0.46;88.79
64632;BME280;58358;50.936;0.246;2022-12-07T07:56:25;101613.39;;;-1.30;90.28
64632;BME280;58358;50.936;0.246;2022-12-07T07:58:51;101613.23;;;-0.24;87.54
64632;BME280;58358;50.936;0.246;2022-12-07T08:01:15;101620.34;;;-0.86;89.38
64632;BME280;58358;50.936;0.246;2022-12-07T08:03:41;101619.49;;;-0.30;88.82
64632;BME280;58358;50.936;0.246;2022-12-07T08:06:07;101621.59;;;-1.01;89.54
64632;BME280;58358;50.936;0.246;2022-12-07T08:08:32;101633.15;;;-0.66;88.40
64632;BME280;58358;50.936;0.246;2022-12-07T08:10:57;101635.47;;;-0.96;87.61
64632;BME280;58358;50.936;0.246;2022-12-07T08:13:22;101638.17;;;-0.04;88.00
64632;BME280;58358;50.936;0.246;2022-12-07T08:15:49;101632.70;;;-0.92;89.75
64632;BME280;58358;50.936;0.246;2022-12-07T08:18:14;101632.86;;;-0.80;88.70
64632;BME280;58358;50.936;0.246;2022-12-07T08:20:40;101632.53;;;0.07;86.61
64632;BME280;58358;50.936;0.246;2022-12-07T08:23:05;101637.98;;;0.03;85.00
64632;BME280;58358;50.936;0.246;2022-12-07T08:25:31;101642.08;;;-0.25;87.38
64632;BME280;58358;50.936;0.246;2022-12-07T08:27:56;101637.89;;;-0.42;86.92
64632;BME280;58358;50.936;0.246;2022-12-07T08:30:21;101638.53;;;-0.10;86.25
64632;BME280;58358;50.936;0.246;2022-12-07T08:32:47;101639.99;;;-0.01;86.16
64632;BME280;58358;50.936;0.246;2022-12-07T08:35:13;101630.18;;;0.67;84.85
64632;BME280;58358;50.936;0.246;2022-12-07T08:37:38;101635.84;;;-0.54;86.43
64632;BME280;58358;50.936;0.246;2022-12-07T08:40:05;101638.22;;;0.00;85.78
64632;BME280;58358;50.936;0.246;2022-12-07T08:42:28;101638.60;;;-0.03;87.52
64632;BME280;58358;50.936;0.246;2022-12-07T08:44:55;101623.63;;;1.02;84.35
64632;BME280;58358;50.936;0.246;2022-12-07T08:47:21;101627.58;;;-0.40;86.99
64632;BME280;58358;50.936;0.246;2022-12-07T08:49:47;101628.01;;;0.27;86.83
64632;BME280;58358;50.936;0.246;2022-12-07T08:52:11;101629.30;;;0.46;87.45
64632;BME280;58358;50.936;0.246;2022-12-07T08:54:38;101637.16;;;-0.37;88.94
64632;BME280;58358;50.936;0.246;2022-12-07T08:57:03;101646.54;;;-0.47;89.03
64632;BME280;58358;50.936;0.246;2022-12-07T08:59:29;101638.58;;;-0.14;89.04
64632;BME280;58358;50.936;0.246;2022-12-07T09:01:53;101633.28;;;-1.38;90.03
64632;BME280;58358;50.936;0.246;2022-12-07T09:04:19;101628.48;;;-0.28;88.67
64632;BME280;58358;50.936;0.246;2022-12-07T09:06:44;101629.67;;;-0.25;87.98
64632;BME280;58358;50.936;0.246;2022-12-07T09:09:10;101637.60;;;-0.22;87.57
64632;BME280;58358;50.936;0.246;2022-12-07T09:11:35;101639.12;;;0.02;86.43
64632;BME280;58358;50.936;0.246;2022-12-07T09:14:01;101635.86;;;-0.07;87.33
64632;BME280;58358;50.936;0.246;2022-12-07T09:16:27;101631.97;;;0.31;84.59
64632;BME280;58358;50.936;0.246;2022-12-07T09:18:52;101628.72;;;0.51;84.74
64632;BME280;58358;50.936;0.246;2022-12-07T09:21:19;101632.87;;;0.84;83.77
64632;BME280;58358;50.936;0.246;2022-12-07T09:23:43;101630.90;;;0.67;83.57
64632;BME280;58358;50.936;0.246;2022-12-07T09:26:10;101627.75;;;0.23;82.48
64632;BME280;58358;50.936;0.246;2022-12-07T09:28:33;101634.15;;;1.77;80.94
64632;BME280;58358;50.936;0.246;2022-12-07T09:30:58;101633.52;;;2.79;76.35
64632;BME280;58358;50.936;0.246;2022-12-07T09:33:23;101629.24;;;2.16;75.69
64632;BME280;58358;50.936;0.246;2022-12-07T09:35:50;101625.44;;;3.32;73.91
64632;BME280;58358;50.936;0.246;2022-12-07T09:38:14;101627.02;;;2.36;75.06
64632;BME280;58358;50.936;0.246;2022-12-07T09:40:40;101627.80;;;1.71;78.01
64632;BME280;58358;50.936;0.246;2022-12-07T09:43:10;101624.26;;;1.04;79.06
64632;BME280;58358;50.936;0.246;2022-12-07T09:45:34;101627.77;;;2.00;77.59
64632;BME280;58358;50.936;0.246;2022-12-07T09:47:56;101628.19;;;1.07;78.87
64632;BME280;58358;50.936;0.246;2022-12-07T09:50:23;101626.60;;;1.17;78.19
64632;BME280;58358;50.936;0.246;2022-12-07T09:52:49;101626.00;;;0.72;81.01
64632;BME280;58358;50.936;0.246;2022-12-07T09:55:14;101615.68;;;0.34;81.25
64632;BME280;58358;50.936;0.246;2022-12-07T09:57:37;101621.15;;;0.58;80.98
64632;BME280;58358;50.936;0.246;2022-12-07T10:00:12;101618.48;;;0.88;79.15
64632;BME280;58358;50.936;0.246;2022-12-07T10:02:35;101613.75;;;2.18;75.64
64632;BME280;58358;50.936;0.246;2022-12-07T10:04:53;101607.37;;;0.71;79.74
64632;BME280;58358;50.936;0.246;2022-12-07T10:07:18;101608.29;;;1.15;79.93
64632;BME280;58358;50.936;0.246;2022-12-07T10:09:45;101605.73;;;2.40;76.81
64632;BME280;58358;50.936;0.246;2022-12-07T10:12:11;101602.63;;;1.59;76.89
64632;BME280;58358;50.936;0.246;2022-12-07T10:14:37;101606.44;;;0.89;79.75
64632;BME280;58358;50.936;0.246;2022-12-07T10:17:00;101603.86;;;1.23;79.82
64632;BME280;58358;50.936;0.246;2022-12-07T10:19:27;101599.91;;;2.22;78.04
64632;BME280;58358;50.936;0.246;2022-12-07T10:22:03;101597.09;;;1.42;77.95
64632;BME280;58358;50.936;0.246;2022-12-07T10:24:16;101594.77;;;1.07;82.00
64632;BME280;58358;50.936;0.246;2022-12-07T10:26:48;101596.64;;;1.64;80.13
64632;BME280;58358;50.936;0.246;2022-12-07T10:29:14;101596.72;;;0.56;81.75
64632;BME280;58358;50.936;0.246;2022-12-07T10:31:38;101593.67;;;0.88;82.30
64632;BME280;58358;50.936;0.246;2022-12-07T10:34:00;101588.98;;;0.84;79.77
64632;BME280;58358;50.936;0.246;2022-12-07T10:36:27;101584.80;;;1.07;80.05
64632;BME280;58358;50.936;0.246;2022-12-07T10:38:51;101580.34;;;0.55;80.11
64632;BME280;58358;50.936;0.246;2022-12-07T10:41:15;101578.60;;;0.67;79.99
64632;BME280;58358;50.936;0.246;2022-12-07T10:43:46;101578.89;;;0.90;79.69
64632;BME280;58358;50.936;0.246;2022-12-07T10:46:24;101574.91;;;1.67;78.31
64632;BME280;58358;50.936;0.246;2022-12-07T10:48:37;101569.81;;;1.91;76.80
64632;BME280;58358;50.936;0.246;2022-12-07T10:51:05;101569.12;;;1.23;78.39
64632;BME280;58358;50.936;0.246;2022-12-07T10:53:33;101564.86;;;1.39;77.33
64632;BME280;58358;50.936;0.246;2022-12-07T10:55:56;101553.71;;;1.15;78.04
64632;BME280;58358;50.936;0.246;2022-12-07T10:58:26;101555.14;;;0.09;81.58
64632;BME280;58358;50.936;0.246;2022-12-07T11:00:43;101555.74;;;1.86;78.41
64632;BME280;58358;50.936;0.246;2022-12-07T11:05:30;101550.40;;;0.97;79.91
64632;BME280;58358;50.936;0.246;2022-12-07T11:08:03;101538.39;;;0.19;81.49
64632;BME280;58358;50.936;0.246;2022-12-07T11:10:20;101540.38;;;0.90;81.05
64632;BME280;58358;50.936;0.246;2022-12-07T11:12:58;101539.16;;;1.85;77.40
64632;BME280;58358;50.936;0.246;2022-12-07T11:15:15;101540.50;;;1.90;76.93
64632;BME280;58358;50.936;0.246;2022-12-07T11:17:40;101539.91;;;1.16;77.98
64632;BME280;58358;50.936;0.246;2022-12-07T11:20:11;101535.76;;;1.41;78.34
64632;BME280;58358;50.936;0.246;2022-12-07T11:22:30;101539.09;;;1.17;79.15
64632;BME280;58358;50.936;0.246;2022-12-07T11:24:56;101534.04;;;-0.08;80.30
64632;BME280;58358;50.936;0.246;2022-12-07T11:27:23;101529.59;;;1.39;78.10
64632;BME280;58358;50.936;0.246;2022-12-07T11:29:58;101529.46;;;1.77;76.77
64632;BME280;58358;50.936;0.246;2022-12-07T11:32:13;101529.79;;;1.82;75.69
64632;BME280;58358;50.936;0.246;2022-12-07T11:34:37;101514.16;;;2.07;74.60
64632;BME280;58358;50.936;0.246;2022-12-07T11:36:56;101520.95;;;1.08;79.11
64632;BME280;58358;50.936;0.246;2022-12-07T11:39:28;101522.10;;;1.21;78.47
64632;BME280;58358;50.936;0.246;2022-12-07T11:41:48;101512.39;;;0.45;81.10
64632;BME280;58358;50.936;0.246;2022-12-07T11:44:25;101511.72;;;1.30;79.37
64632;BME280;58358;50.936;0.246;2022-12-07T11:46:44;101508.92;;;1.15;77.57
64632;BME280;58358;50.936;0.246;2022-12-07T11:49:08;101501.21;;;1.63;76.72
64632;BME280;58358;50.936;0.246;2022-12-07T11:51:30;101497.79;;;1.18;78.68
64632;BME280;58358;50.936;0.246;2022-12-07T11:53:54;101495.53;;;0.53;79.43
64632;BME280;58358;50.936;0.246;2022-12-07T11:56:20;101497.08;;;0.99;78.71
64632;BME280;58358;50.936;0.246;2022-12-07T11:58:49;101492.09;;;0.98;78.10
64632;BME280;58358;50.936;0.246;2022-12-07T12:01:17;101485.67;;;1.90;75.54
64632;BME280;58358;50.936;0.246;2022-12-07T12:03:38;101486.88;;;2.52;74.99
64632;BME280;58358;50.936;0.246;2022-12-07T12:05:59;101486.01;;;1.19;76.51
64632;BME280;58358;50.936;0.246;2022-12-07T12:08:29;101484.72;;;1.96;75.51
64632;BME280;58358;50.936;0.246;2022-12-07T12:10:57;101480.85;;;1.78;75.76
64632;BME280;58358;50.936;0.246;2022-12-07T12:13:31;101485.25;;;0.51;77.31
64632;BME280;58358;50.936;0.246;2022-12-07T12:15:55;101478.36;;;0.60;78.22
64632;BME280;58358;50.936;0.246;2022-12-07T12:18:22;101477.43;;;0.42;80.39
64632;BME280;58358;50.936;0.246;2022-12-07T12:20:37;101474.80;;;1.15;78.47
64632;BME280;58358;50.936;0.246;2022-12-07T12:23:01;101474.10;;;1.64;76.74
64632;BME280;58358;50.936;0.246;2022-12-07T12:25:24;101476.19;;;1.16;78.65
64632;BME280;58358;50.936;0.246;2022-12-07T12:27:49;101475.70;;;1.48;78.29
64632;BME280;58358;50.936;0.246;2022-12-07T12:30:29;101470.45;;;1.56;76.72
64632;BME280;58358;50.936;0.246;2022-12-07T12:32:40;101465.04;;;2.24;75.69
64632;BME280;58358;50.936;0.246;2022-12-07T12:37:39;101455.27;;;1.84;74.70
64632;BME280;58358;50.936;0.246;2022-12-07T12:42:20;101455.05;;;1.77;75.39
64632;BME280;58358;50.936;0.246;2022-12-07T12:49:38;101453.99;;;0.37;80.90
64632;BME280;58358;50.936;0.246;2022-12-07T12:54:29;101450.07;;;1.60;77.41
64632;BME280;58358;50.936;0.246;2022-12-07T12:56:58;101453.10;;;1.43;75.25
64632;BME280;58358;50.936;0.246;2022-12-07T12:59:25;101449.11;;;1.61;75.64
64632;BME280;58358;50.936;0.246;2022-12-07T13:01:44;101445.98;;;1.86;74.17
64632;BME280;58358;50.936;0.246;2022-12-07T13:04:24;101445.14;;;1.85;73.93
64632;BME280;58358;50.936;0.246;2022-12-07T13:06:35;101447.75;;;0.92;75.77
64632;BME280;58358;50.936;0.246;2022-12-07T13:09:00;101446.51;;;1.86;73.69
64632;BME280;58358;50.936;0.246;2022-12-07T13:11:29;101441.63;;;1.89;73.97
64632;BME280;58358;50.936;0.246;2022-12-07T13:13:51;101438.90;;;1.34;74.96